Drogheda, Ireland
Current Conditions -  °F | °C
As of 12:00 AM on Friday 28 Nov 2014 (Local Time) from EIDW Reporting Station
Broken Clouds Broken Clouds  
Wind Chill: 41°   Ceiling: 1900
Heat Index: 48°   Visibility: 6mi
Dew Point: 45°   Wind: 20mph
Humidity: 87%   Direction: 120°ESE
Pressure: 29.47"   Gusts: NA
Location:  53.72°N, 6.36°W
Report Text: EIDW 280000Z 12017KT 9999 SCT016 BKN019 09/07 Q0998 NOSIG
Loading
Personal Weather Stations






























Interactive Weather Map New forecast layout! Learn more

10-Day Weather Forecast

Advertisements
Track Severe Weather on mobile